Church Stretton, United Kingdom
Current Conditions -  °F | °C
As of 12:50 PM on Friday 28 Nov 2014 (Local Time) from EGOS Reporting Station
Haze Haze  
Wind Chill: 52°   Ceiling: 1100
Heat Index: 52°   Visibility: 4mi
Dew Point: 48°   Wind: 10mph
Humidity: 88%   Direction: 70°ENE
Pressure: 29.65"   Gusts: NA
Location:  52.54°N, 2.8°W
Report Text: EGOS 281250Z 07009KT 7000 HZ FEW008 BKN011 OVC026 11/09 Q1004 GRN BECMG 8000 GRN
Loading
Personal Weather Stations






























Interactive Weather Map New forecast layout! Learn more

10-Day Weather Forecast

Advertisements
Track Severe Weather on mobile